< < Back
Terminal Aerodrome Forecast


Current Version              Previous Versions:   1  2  3  4  5  6  7  8  9  

Terminal Aerodrome Forecast

899
FTUS42 KJAX 221600 AAC
TAFGNV
TAF AMD
KGNV 221635Z 2217/2312 14009KT P6SM VCSH SCT007 OVC035
     FM222000 17007KT 6SM -SHRA BR SCT007 OVC025
     FM230000 20004KT 2SM BR VCSH OVC003=

Latest METAR

916
SAUS70 KWBC 222000 RRC
MTRGNV
METAR KGNV 221953Z 18006KT 10SM OVC018 22/21 A2988 RMK AO2 SLP116
T02220211


USA.gov is the U.S. government's official web portal to all federal, state and local government web resources and services.